Friday, April 20, 2018, 7:52 PM GMT
Back to Local

CWEW, L'Assomption

Location: , , Canada Lat: 45.817
Local Time: 7:52 PM GMT (19:52 GMT) Lon: -73.433
Time Zone: GMT Elev: 68 ft

Show me the last for .
Show Coded

Time T Td Feel RH Dir Speed Gust Alt SLP Vis Weather Sky Remarks
2018-04-20 19:00 50 28 43 42 320° 14 22 - 30.15 0 Peak wind: 27 mph (24 kts) from 310° at 15 min
2018-04-20 18:00 47 26 39 44 310° 14 23 - 30.14 0 Peak wind: 25 mph (22 kts) from 320° at 28 min
2018-04-20 17:00 47 30 40 51 310° 14 22 - 30.14 0 Peak wind: 21 mph (19 kts) from 300° at 42 min
2018-04-20 16:00 45 29 36 53 330° 14 23 - 30.14 0 Peak wind: 23 mph (20 kts) from 310° at 57 min
2018-04-20 15:00 43 30 34 60 320° 14 22 - 30.13 0 Peak wind: 21 mph (19 kts) from 310° at 47 min
2018-04-20 14:00 40 28 31 61 330° 14 20 - 30.11 0 Peak wind: 23 mph (20 kts) from 340° at 49 min
2018-04-20 13:00 40 28 33 62 310° 12 - - 30.09 0 None
2018-04-20 12:00 38 28 31 68 310° 10 - - 30.06 0 None
2018-04-20 11:00 35 27 27 73 300° 9 - - 30.04 0 None
2018-04-20 10:00 35 27 29 72 290° 8 - - 30.01 0 None
2018-04-20 09:00 36 27 29 70 300° 8 - - 29.98 0 None
2018-04-20 08:00 36 27 28 69 300° 10 - - 29.96 0 None
2018-04-20 07:00 35 28 28 74 310° 10 - - 29.94 0 Peak wind: 23 mph (20 kts) from 310° at 31 min
2018-04-20 06:00 36 27 26 68 310° 13 20 - 29.93 0 Peak wind: 19 mph (17 kts) from 310° at 02 min
2018-04-20 05:00 37 27 30 67 310° 9 - - 29.92 0 None
2018-04-20 04:00 37 28 27 70 310° 10 17 - 29.91 0 Peak wind: 19 mph (17 kts) from 300° at 42 min
2018-04-20 03:00 37 28 32 69 290° 7 - - 29.90 0 None
2018-04-20 02:00 37 29 32 71 290° 7 - - 29.90 0 None
2018-04-20 01:00 38 29 31 70 310° 9 - - 29.89 0 None
2018-04-20 00:00 39 29 31 66 310° 12 - - 29.87 0 Peak wind: 19 mph (17 kts) from 310° at 19 min
2018-04-19 23:00 41 29 33 63 320° 13 - - 29.83 0 None
2018-04-19 22:00 41 29 35 62 300° 9 - - 29.81 0 None
2018-04-19 21:00 43 28 38 56 280° 7 - - 29.79 0 None
2018-04-19 20:00 43 30 38 60 280° 8 - - 29.77 0 None

Support USWX by starting your Amazon purchase here.